createdAt,value
2022-12-01T00:00:20.730Z,46.42
2022-12-01T00:02:51.685Z,46.21
2022-12-01T00:05:22.805Z,46.18
2022-12-01T00:07:53.479Z,46.26
2022-12-01T00:10:27.068Z,46.28
2022-12-01T00:12:58.992Z,46.21
2022-12-01T00:15:31.610Z,46.07
2022-12-01T00:18:02.827Z,46.19
2022-12-01T00:20:36.043Z,46.20
2022-12-01T00:23:06.703Z,46.18
2022-12-01T00:25:37.582Z,46.50
2022-12-01T00:28:08.884Z,46.49
2022-12-01T00:30:39.908Z,46.37
2022-12-01T00:33:10.778Z,46.33
2022-12-01T00:35:41.586Z,46.28
2022-12-01T00:38:12.315Z,46.57
2022-12-01T00:40:43.380Z,46.47
2022-12-01T00:43:14.210Z,46.40
2022-12-01T00:45:45.299Z,46.60
2022-12-01T00:48:16.197Z,46.58
2022-12-01T00:50:47.215Z,46.77
2022-12-01T00:53:17.842Z,46.68
2022-12-01T00:55:48.613Z,46.83
2022-12-01T00:58:19.351Z,46.89
2022-12-01T01:00:50.635Z,47.17
2022-12-01T01:03:21.410Z,46.91
2022-12-01T01:05:52.234Z,47.19
2022-12-01T01:08:23.020Z,47.13
2022-12-01T01:10:53.632Z,47.10
2022-12-01T01:13:24.409Z,47.10
2022-12-01T01:16:01.863Z,47.13
2022-12-01T01:18:33.177Z,47.11
2022-12-01T01:21:06.092Z,47.29
2022-12-01T01:23:37.111Z,47.23
2022-12-01T01:26:09.535Z,47.30
2022-12-01T01:28:41.831Z,47.32
2022-12-01T01:31:15.481Z,47.31
2022-12-01T01:33:46.439Z,47.35
2022-12-01T01:36:18.838Z,47.43
2022-12-01T01:38:51.589Z,47.27
2022-12-01T01:41:23.253Z,47.15
2022-12-01T01:43:56.168Z,46.83
2022-12-01T01:46:29.107Z,46.95
2022-12-01T01:49:02.612Z,47.01
2022-12-01T01:51:38.042Z,47.18
2022-12-01T01:54:15.604Z,47.18
2022-12-01T01:56:48.537Z,47.32
2022-12-01T01:59:21.778Z,47.24
2022-12-01T02:02:03.103Z,47.47
2022-12-01T02:04:34.474Z,47.31
2022-12-01T02:07:06.044Z,47.55
2022-12-01T02:09:36.913Z,47.50
2022-12-01T02:12:20.576Z,47.54
2022-12-01T02:15:04.998Z,47.51
2022-12-01T02:17:45.862Z,47.61
2022-12-01T02:20:46.555Z,47.63
2022-12-01T02:23:59.146Z,47.66
2022-12-01T02:26:40.719Z,47.66
2022-12-01T02:29:38.359Z,47.75
2022-12-01T02:32:18.151Z,47.83
2022-12-01T02:34:59.677Z,47.95
2022-12-01T02:37:37.416Z,47.86
2022-12-01T02:40:17.280Z,48.06
2022-12-01T02:42:54.320Z,48.16
2022-12-01T02:45:34.513Z,48.21
2022-12-01T02:48:10.061Z,48.30
2022-12-01T02:50:41.997Z,48.48
2022-12-01T02:53:16.801Z,48.44
2022-12-01T02:55:53.144Z,48.51
2022-12-01T02:58:24.527Z,48.44
2022-12-01T03:01:17.919Z,48.56
2022-12-01T03:04:08.997Z,48.51
2022-12-01T03:06:52.949Z,48.66
2022-12-01T03:09:34.459Z,48.68
2022-12-01T03:12:14.608Z,48.56
2022-12-01T03:14:54.040Z,48.58
2022-12-01T03:17:30.389Z,48.65
2022-12-01T03:20:11.817Z,48.74
2022-12-01T03:22:47.834Z,48.59
2022-12-01T03:25:21.020Z,48.70
2022-12-01T03:28:20.275Z,48.56
2022-12-01T03:30:49.875Z,48.64
2022-12-01T03:33:26.677Z,48.75
2022-12-01T03:36:03.143Z,48.67
2022-12-01T03:38:36.486Z,48.67
2022-12-01T03:41:11.146Z,48.64
2022-12-01T03:43:46.182Z,48.35
2022-12-01T03:46:23.200Z,48.39
2022-12-01T03:48:54.578Z,48.27
2022-12-01T03:51:32.892Z,48.19
2022-12-01T03:54:09.181Z,48.05
2022-12-01T03:56:45.818Z,47.80
2022-12-01T03:59:19.020Z,47.83
2022-12-01T04:01:50.010Z,47.84
2022-12-01T04:04:20.905Z,47.62
2022-12-01T04:06:52.664Z,47.66
2022-12-01T04:09:23.477Z,47.70
2022-12-01T04:12:11.743Z,47.63
2022-12-01T04:14:42.381Z,47.64
2022-12-01T04:17:13.115Z,47.54
2022-12-01T04:19:43.870Z,47.56
2022-12-01T04:22:14.483Z,47.76
2022-12-01T04:24:45.514Z,47.64
2022-12-01T04:27:16.301Z,47.56
2022-12-01T04:29:47.339Z,47.55
2022-12-01T04:32:18.384Z,47.56
2022-12-01T04:34:49.099Z,47.58
2022-12-01T04:37:20.352Z,47.61
2022-12-01T04:39:51.410Z,47.66
2022-12-01T04:42:22.338Z,47.52
2022-12-01T04:44:52.931Z,47.32
2022-12-01T04:47:23.709Z,47.12
2022-12-01T04:49:54.654Z,46.91
2022-12-01T04:52:27.509Z,46.84
2022-12-01T04:55:01.346Z,46.87
2022-12-01T04:57:32.286Z,46.76
2022-12-01T05:00:03.642Z,46.60
2022-12-01T05:02:34.825Z,46.71
2022-12-01T05:05:06.925Z,46.79
2022-12-01T05:07:37.624Z,46.72
2022-12-01T05:10:10.153Z,46.80
2022-12-01T05:12:41.346Z,46.85
2022-12-01T05:15:12.965Z,46.97
2022-12-01T05:17:44.026Z,47.12
2022-12-01T05:20:39.332Z,47.13
2022-12-01T05:23:16.393Z,47.22
2022-12-01T05:25:47.538Z,47.10
2022-12-01T05:28:18.153Z,47.15
2022-12-01T05:30:49.387Z,47.33
2022-12-01T05:33:20.105Z,47.45
2022-12-01T05:35:52.021Z,47.48
2022-12-01T05:38:23.655Z,47.47
2022-12-01T05:40:55.781Z,47.65
2022-12-01T05:43:29.462Z,47.53
2022-12-01T05:46:01.396Z,47.65
2022-12-01T05:48:33.607Z,47.77
2022-12-01T05:51:11.248Z,47.74
2022-12-01T05:53:42.616Z,47.76
2022-12-01T05:56:13.373Z,47.65
2022-12-01T05:58:44.308Z,47.78
2022-12-01T06:01:15.794Z,47.72
2022-12-01T06:03:46.561Z,47.88
2022-12-01T06:06:17.588Z,47.81
2022-12-01T06:08:48.366Z,47.87
2022-12-01T06:11:19.048Z,47.87
2022-12-01T06:13:49.990Z,47.84
2022-12-01T06:16:20.768Z,47.76
2022-12-01T06:18:51.445Z,47.84
2022-12-01T06:21:22.212Z,47.75
2022-12-01T06:23:53.149Z,47.80
2022-12-01T06:26:23.884Z,47.89
2022-12-01T06:28:54.726Z,47.95
2022-12-01T06:31:25.694Z,47.86
2022-12-01T06:33:56.379Z,47.79
2022-12-01T06:36:26.990Z,47.89
2022-12-01T06:38:58.092Z,47.89
2022-12-01T06:41:28.760Z,47.79
2022-12-01T06:43:59.870Z,48.04
2022-12-01T06:46:31.105Z,47.90
2022-12-01T06:49:01.831Z,47.85
2022-12-01T06:51:34.340Z,47.74
2022-12-01T06:54:05.913Z,47.88
2022-12-01T06:56:36.928Z,47.82
2022-12-01T06:59:07.991Z,47.78
2022-12-01T07:01:39.233Z,47.68
2022-12-01T07:04:10.069Z,47.59
2022-12-01T07:06:40.806Z,47.68
2022-12-01T07:09:11.701Z,47.63
2022-12-01T07:11:42.433Z,47.61
2022-12-01T07:14:21.321Z,47.57
2022-12-01T07:16:52.380Z,47.67
2022-12-01T07:19:23.146Z,47.52
2022-12-01T07:21:54.039Z,47.63
2022-12-01T07:24:24.705Z,47.63
2022-12-01T07:26:55.543Z,47.61
2022-12-01T07:29:26.248Z,47.47
2022-12-01T07:31:56.901Z,47.42
2022-12-01T07:34:27.609Z,47.52
2022-12-01T07:36:58.562Z,47.52
2022-12-01T07:39:29.301Z,47.47
2022-12-01T07:42:00.037Z,47.41
2022-12-01T07:44:30.690Z,47.35
2022-12-01T07:47:01.580Z,47.28
2022-12-01T07:49:32.357Z,47.24
2022-12-01T07:52:02.989Z,47.29
2022-12-01T07:54:33.651Z,47.08
2022-12-01T07:57:05.057Z,47.33
2022-12-01T07:59:35.761Z,47.29
2022-12-01T08:02:06.794Z,47.29
2022-12-01T08:04:37.906Z,47.29
2022-12-01T08:07:08.643Z,47.41
2022-12-01T08:09:39.800Z,47.33
2022-12-01T08:12:10.582Z,47.41
2022-12-01T08:14:41.469Z,47.38
2022-12-01T08:17:12.139Z,47.28
2022-12-01T08:19:42.850Z,47.39
2022-12-01T08:22:13.592Z,47.29
2022-12-01T08:24:44.321Z,47.36
2022-12-01T08:27:15.208Z,47.34
2022-12-01T08:29:46.368Z,47.22
2022-12-01T08:32:18.071Z,47.16
2022-12-01T08:34:53.476Z,47.02
2022-12-01T08:37:24.396Z,46.89
2022-12-01T08:39:55.198Z,46.64
2022-12-01T08:42:26.100Z,46.65
2022-12-01T08:44:56.804Z,46.42
2022-12-01T08:47:28.432Z,46.43
2022-12-01T08:49:59.374Z,46.42
2022-12-01T08:52:34.717Z,46.36
2022-12-01T08:55:06.186Z,46.29
2022-12-01T08:57:36.961Z,46.26
2022-12-01T09:00:09.708Z,46.04
2022-12-01T09:02:40.451Z,46.09
2022-12-01T09:05:12.340Z,46.09
2022-12-01T09:07:45.690Z,46.03
2022-12-01T09:10:16.863Z,45.96
2022-12-01T09:12:47.520Z,45.93
2022-12-01T09:15:18.421Z,46.07
2022-12-01T09:17:49.325Z,45.97
2022-12-01T09:20:20.010Z,45.82
2022-12-01T09:22:50.845Z,45.82
2022-12-01T09:25:21.584Z,45.78
2022-12-01T09:27:52.621Z,45.79
2022-12-01T09:30:24.106Z,45.63
2022-12-01T09:32:54.759Z,45.68
2022-12-01T09:35:25.421Z,45.71
2022-12-01T09:37:56.056Z,45.64
2022-12-01T09:40:31.952Z,45.69
2022-12-01T09:43:05.742Z,45.65
2022-12-01T09:45:37.812Z,45.75
2022-12-01T09:48:15.802Z,45.72
2022-12-01T09:50:46.763Z,45.65
2022-12-01T09:53:23.897Z,45.58
2022-12-01T09:55:56.714Z,45.54
2022-12-01T09:58:33.590Z,45.38
2022-12-01T10:01:05.010Z,45.64
2022-12-01T10:03:45.615Z,45.47
2022-12-01T10:06:28.760Z,45.61
2022-12-01T10:09:12.823Z,45.58
2022-12-01T10:11:46.901Z,45.46
2022-12-01T10:14:20.665Z,45.36
2022-12-01T10:17:00.971Z,45.50
2022-12-01T10:19:39.166Z,45.47
2022-12-01T10:22:36.207Z,45.49
2022-12-01T10:25:21.484Z,45.30
2022-12-01T10:28:05.826Z,45.39
2022-12-01T10:30:42.264Z,45.16
2022-12-01T10:33:23.873Z,45.29
2022-12-01T10:35:54.926Z,45.25
2022-12-01T10:38:29.638Z,45.23
2022-12-01T10:41:02.728Z,45.22
2022-12-01T10:43:50.191Z,45.08
2022-12-01T10:46:25.581Z,45.05
2022-12-01T10:48:58.507Z,44.99
2022-12-01T10:51:30.019Z,44.98
2022-12-01T10:54:11.738Z,45.06
2022-12-01T10:56:45.479Z,45.13
2022-12-01T10:59:35.495Z,45.18
2022-12-01T11:02:17.212Z,45.17
2022-12-01T11:04:55.399Z,44.94
2022-12-01T11:07:28.858Z,44.99
2022-12-01T11:10:14.316Z,45.02
2022-12-01T11:12:46.901Z,44.78
2022-12-01T11:15:25.597Z,44.74
2022-12-01T11:18:02.402Z,44.54
2022-12-01T11:20:38.715Z,44.67
2022-12-01T11:23:26.910Z,44.62
2022-12-01T11:26:04.634Z,44.61
2022-12-01T11:28:36.749Z,44.67
2022-12-01T11:31:09.636Z,44.52
2022-12-01T11:33:47.945Z,44.33
2022-12-01T11:36:30.372Z,44.44
2022-12-01T11:39:03.836Z,44.46
2022-12-01T11:41:38.162Z,44.25
2022-12-01T11:47:25.447Z,44.36
2022-12-01T11:49:59.047Z,44.35
2022-12-01T11:52:32.892Z,44.38
2022-12-01T11:55:20.966Z,44.26
2022-12-01T11:57:54.324Z,44.31
2022-12-01T12:00:27.571Z,44.39
2022-12-01T12:03:15.303Z,44.40
2022-12-01T12:06:39.460Z,44.28
2022-12-01T12:09:24.069Z,44.26
2022-12-01T12:12:03.914Z,44.32
2022-12-01T12:14:40.578Z,44.42
2022-12-01T12:17:48.428Z,44.33
2022-12-01T12:20:35.038Z,44.13
2022-12-01T12:23:24.767Z,44.16
2022-12-01T12:26:05.793Z,44.29
2022-12-01T12:28:47.730Z,44.40
2022-12-01T12:31:29.445Z,44.38
2022-12-01T12:34:23.340Z,44.06
2022-12-01T12:37:08.283Z,44.31
2022-12-01T12:40:10.020Z,44.26
2022-12-01T12:42:52.745Z,44.18
2022-12-01T12:45:32.987Z,44.29
2022-12-01T12:48:21.795Z,44.37
2022-12-01T12:51:02.630Z,44.28
2022-12-01T12:53:39.776Z,44.17
2022-12-01T12:56:15.683Z,44.11
2022-12-01T12:58:56.919Z,44.04
2022-12-01T13:01:31.876Z,44.02
2022-12-01T13:04:06.294Z,44.06
2022-12-01T13:06:42.894Z,44.11
2022-12-01T13:09:16.607Z,43.97
2022-12-01T13:11:54.167Z,43.86
2022-12-01T13:14:30.800Z,43.82
2022-12-01T13:17:07.746Z,43.96
2022-12-01T13:19:41.671Z,43.86
2022-12-01T13:22:16.299Z,43.66
2022-12-01T13:24:47.509Z,43.76
2022-12-01T13:27:21.993Z,43.87
2022-12-01T13:29:55.468Z,43.98
2022-12-01T13:32:37.028Z,43.96
2022-12-01T13:35:23.452Z,44.07
2022-12-01T13:37:54.772Z,44.08
2022-12-01T13:40:29.494Z,43.93
2022-12-01T13:43:10.397Z,44.15
2022-12-01T13:45:43.394Z,44.24
2022-12-01T13:48:50.193Z,44.28
2022-12-01T13:51:21.155Z,44.47
2022-12-01T13:54:29.243Z,44.38
2022-12-01T13:57:12.086Z,44.40
2022-12-01T14:00:24.528Z,44.59
2022-12-01T14:03:34.258Z,44.49
2022-12-01T14:06:26.748Z,44.65
2022-12-01T14:09:02.525Z,44.70
2022-12-01T14:11:35.912Z,44.56
2022-12-01T14:14:22.744Z,44.55
2022-12-01T14:16:59.042Z,44.53
2022-12-01T14:19:38.157Z,44.63
2022-12-01T14:22:32.421Z,44.53
2022-12-01T14:25:05.464Z,44.48
2022-12-01T14:27:42.621Z,44.47
2022-12-01T14:31:02.908Z,44.23
2022-12-01T14:33:59.397Z,44.27
2022-12-01T14:36:40.674Z,44.38
2022-12-01T14:39:20.129Z,44.26
2022-12-01T14:41:55.387Z,44.25
2022-12-01T14:44:31.830Z,44.21
2022-12-01T14:47:16.003Z,44.18
2022-12-01T14:49:52.330Z,44.04
2022-12-01T14:52:32.176Z,44.22
2022-12-01T14:55:04.040Z,44.08
2022-12-01T14:57:39.876Z,44.12
2022-12-01T15:00:17.505Z,44.16
2022-12-01T15:02:54.365Z,44.10
2022-12-01T15:05:28.333Z,44.09
2022-12-01T15:08:25.647Z,44.08
2022-12-01T15:10:56.874Z,44.20
2022-12-01T15:13:30.909Z,44.19
2022-12-01T15:16:04.287Z,44.02
2022-12-01T15:18:37.856Z,43.89
2022-12-01T15:21:12.078Z,43.90
2022-12-01T15:23:58.133Z,43.88
2022-12-01T15:26:31.488Z,44.17
2022-12-01T15:29:16.539Z,43.91
2022-12-01T15:31:50.662Z,43.97
2022-12-01T15:34:25.001Z,44.06
2022-12-01T15:36:56.583Z,43.93
2022-12-01T15:39:34.044Z,43.88
2022-12-01T15:42:05.937Z,43.78
2022-12-01T15:44:38.144Z,43.68
2022-12-01T15:47:37.536Z,43.64
2022-12-01T15:52:47.599Z,43.31
2022-12-01T15:55:29.543Z,43.35
2022-12-01T15:58:01.370Z,43.32
2022-12-01T16:00:32.310Z,43.16
2022-12-01T16:03:04.035Z,43.32
2022-12-01T16:05:37.800Z,43.24
2022-12-01T16:08:16.366Z,43.15
2022-12-01T16:10:48.280Z,43.25
2022-12-01T16:13:44.739Z,43.07
2022-12-01T16:16:32.147Z,43.27
2022-12-01T16:19:05.888Z,43.12
2022-12-01T16:21:43.098Z,43.06
2022-12-01T16:24:18.502Z,43.30
2022-12-01T16:26:55.067Z,43.02
2022-12-01T16:29:27.617Z,43.24
2022-12-01T16:32:20.237Z,43.03
2022-12-01T16:34:54.459Z,43.18
2022-12-01T16:37:25.752Z,43.13
2022-12-01T16:39:57.486Z,43.27
2022-12-01T16:42:28.625Z,43.56
2022-12-01T16:44:59.632Z,43.66
2022-12-01T16:47:34.297Z,43.63
2022-12-01T16:50:05.822Z,43.66
2022-12-01T16:52:45.749Z,43.51
2022-12-01T16:55:27.794Z,43.31
2022-12-01T16:57:58.692Z,43.17
2022-12-01T17:00:30.327Z,43.21
2022-12-01T17:03:01.624Z,43.21
2022-12-01T17:05:33.161Z,42.99
2022-12-01T17:08:04.216Z,43.25
2022-12-01T17:10:35.398Z,43.26
2022-12-01T17:13:06.435Z,43.18
2022-12-01T17:15:41.420Z,43.28
2022-12-01T17:18:13.283Z,42.97
2022-12-01T17:20:44.817Z,43.30
2022-12-01T17:23:15.868Z,43.42
2022-12-01T17:25:46.995Z,43.40
2022-12-01T17:28:18.031Z,43.41
2022-12-01T17:30:49.714Z,43.47
2022-12-01T17:33:21.121Z,43.56
2022-12-01T17:35:52.415Z,43.57
2022-12-01T17:38:23.232Z,43.67
2022-12-01T17:41:05.194Z,43.85
2022-12-01T17:43:37.644Z,43.80
2022-12-01T17:46:10.697Z,43.71
2022-12-01T17:48:43.352Z,43.78
2022-12-01T17:51:15.454Z,43.59
2022-12-01T17:53:46.595Z,43.62
2022-12-01T17:56:18.842Z,43.55
2022-12-01T17:58:51.705Z,43.67
2022-12-01T18:01:29.779Z,43.48
2022-12-01T18:04:01.525Z,43.41
2022-12-01T18:06:32.763Z,43.43
2022-12-01T18:09:04.384Z,43.47
2022-12-01T18:11:36.086Z,43.39
2022-12-01T18:14:07.557Z,43.39
2022-12-01T18:16:38.830Z,43.15
2022-12-01T18:19:10.226Z,43.33
2022-12-01T18:21:42.003Z,43.46
2022-12-01T18:24:13.295Z,43.48
2022-12-01T18:26:44.416Z,43.71
2022-12-01T18:29:18.550Z,43.68
2022-12-01T18:31:49.719Z,43.72
2022-12-01T18:34:20.924Z,43.72
2022-12-01T18:36:52.473Z,43.73
2022-12-01T18:39:24.095Z,43.88
2022-12-01T18:41:55.511Z,43.64
2022-12-01T18:44:26.445Z,43.58
2022-12-01T18:46:59.157Z,43.65
2022-12-01T18:49:30.225Z,43.52
2022-12-01T18:52:03.340Z,43.45
2022-12-01T18:54:35.828Z,43.42
2022-12-01T18:57:06.975Z,43.50
2022-12-01T18:59:37.731Z,43.32
2022-12-01T19:02:09.297Z,43.25
2022-12-01T19:04:40.561Z,43.03
2022-12-01T19:07:11.968Z,43.29
2022-12-01T19:09:43.464Z,43.17
2022-12-01T19:12:14.368Z,43.28
2022-12-01T19:14:45.413Z,43.19
2022-12-01T19:17:16.867Z,43.16
2022-12-01T19:19:48.114Z,43.27
2022-12-01T19:22:19.200Z,43.14
2022-12-01T19:24:50.844Z,43.31
2022-12-01T19:27:22.202Z,43.39
2022-12-01T19:29:54.091Z,43.36
2022-12-01T19:32:25.864Z,43.10
2022-12-01T19:34:57.144Z,42.88
2022-12-01T19:37:28.068Z,42.88
2022-12-01T19:39:59.195Z,43.09
2022-12-01T19:42:30.415Z,43.16
2022-12-01T19:45:01.634Z,43.11
2022-12-01T19:47:36.772Z,43.07
2022-12-01T19:50:09.297Z,43.45
2022-12-01T19:52:41.571Z,43.30
2022-12-01T19:55:13.396Z,43.32
2022-12-01T19:57:44.461Z,43.44
2022-12-01T20:00:17.524Z,43.39
2022-12-01T20:02:48.640Z,43.48
2022-12-01T20:05:20.683Z,43.39
2022-12-01T20:07:52.029Z,43.48
2022-12-01T20:10:23.677Z,43.60
2022-12-01T20:12:55.429Z,43.19
2022-12-01T20:15:26.481Z,42.88
2022-12-01T20:17:58.211Z,42.73
2022-12-01T20:20:29.420Z,42.58
2022-12-01T20:23:00.570Z,42.69
2022-12-01T20:25:33.543Z,42.89
2022-12-01T20:28:04.834Z,42.97
2022-12-01T20:30:40.191Z,43.05
2022-12-01T20:33:11.392Z,43.23
2022-12-01T20:35:43.833Z,43.14
2022-12-01T20:38:15.026Z,43.47
2022-12-01T20:40:46.084Z,43.42
2022-12-01T20:43:17.258Z,43.51
2022-12-01T20:45:50.590Z,43.56
2022-12-01T20:48:21.692Z,43.45
2022-12-01T20:50:52.746Z,43.56
2022-12-01T20:53:24.004Z,43.75
2022-12-01T20:55:55.762Z,43.68
2022-12-01T20:58:26.706Z,43.77
2022-12-01T21:00:57.662Z,43.89
2022-12-01T21:03:28.697Z,44.05
2022-12-01T21:06:01.934Z,44.16
2022-12-01T21:08:33.107Z,44.21
2022-12-01T21:11:07.282Z,44.33
2022-12-01T21:13:42.403Z,44.32
2022-12-01T21:16:23.459Z,44.30
2022-12-01T21:18:59.968Z,44.35
2022-12-01T21:21:32.322Z,44.41
2022-12-01T21:24:14.942Z,44.43
2022-12-01T21:26:49.744Z,44.64
2022-12-01T21:29:25.011Z,44.61
2022-12-01T21:32:00.129Z,44.60
2022-12-01T21:34:35.119Z,44.83
2022-12-01T21:37:12.317Z,44.79
2022-12-01T21:39:43.182Z,44.82
2022-12-01T21:42:19.272Z,44.90
2022-12-01T21:44:51.001Z,45.06
2022-12-01T21:47:23.482Z,44.96
2022-12-01T21:49:55.852Z,45.08
2022-12-01T21:52:31.893Z,44.89
2022-12-01T21:55:10.396Z,45.13
2022-12-01T21:57:45.077Z,45.00
2022-12-01T22:00:33.348Z,45.09
2022-12-01T22:03:31.374Z,45.17
2022-12-01T22:06:28.734Z,45.19
2022-12-01T22:08:59.456Z,45.20
2022-12-01T22:11:32.249Z,45.24
2022-12-01T22:14:14.006Z,45.44
2022-12-01T22:16:46.576Z,45.35
2022-12-01T22:19:38.618Z,45.50
2022-12-01T22:22:25.892Z,45.57
2022-12-01T22:25:00.726Z,45.60
2022-12-01T22:27:33.555Z,45.60
2022-12-01T22:30:16.981Z,45.46
2022-12-01T22:32:56.385Z,45.56
2022-12-01T22:35:35.828Z,45.55
2022-12-01T22:38:36.994Z,45.82
2022-12-01T22:41:12.816Z,45.55
2022-12-01T22:43:47.884Z,45.83
2022-12-01T22:46:32.684Z,45.92
2022-12-01T22:49:22.410Z,45.88
2022-12-01T22:51:58.139Z,45.99
2022-12-01T22:54:38.734Z,45.93
2022-12-01T22:57:33.185Z,45.93
2022-12-01T23:00:16.952Z,45.88
2022-12-01T23:02:50.812Z,45.87
2022-12-01T23:05:25.629Z,45.92
2022-12-01T23:07:57.568Z,45.98
2022-12-01T23:10:32.364Z,45.97
2022-12-01T23:13:14.055Z,46.12
2022-12-01T23:15:47.917Z,46.11
2022-12-01T23:18:22.292Z,46.12
2022-12-01T23:20:54.965Z,46.04
2022-12-01T23:23:30.165Z,46.09
2022-12-01T23:26:02.511Z,46.21
2022-12-01T23:28:34.034Z,46.19
2022-12-01T23:31:04.935Z,46.27
2022-12-01T23:33:36.948Z,46.31
2022-12-01T23:36:16.718Z,46.43
2022-12-01T23:38:49.509Z,46.42
2022-12-01T23:41:25.632Z,46.57
2022-12-01T23:44:02.511Z,46.65
2022-12-01T23:46:35.230Z,46.71
2022-12-01T23:49:10.672Z,46.64
2022-12-01T23:51:45.368Z,46.65
2022-12-01T23:54:20.607Z,46.79
2022-12-01T23:56:56.010Z,46.87
2022-12-01T23:59:28.570Z,46.75
